• Join FlightAware (Why Join?)
  • Login
  • US Flag 
10:25AM EDT


 

Airport Tracker/Info


-or-


 

Live Flight TrackerFlight Track Log ✈ N901QS ✈ 11-Jul-2013 ✈ KHYA - KCMH

Flight Track Log - Related Links

Times and Time Zones

All times are in EDT time to prevent confusion due to time zone crossing. See the N901QS flight status page for this flight to view local times or setup timezone preferences in your user account.

Time Position Orientation Groundspeed Altitude Reporting Facility
EDT Latitude Longitude Course Direction KTS MPH feet Rate Location/Type
06:09PM 41.6139 -70.5825 280° West 283 326 9,600  Level Boston Center
06:10PM 41.6281 -70.6819 281° West 327 376 9,900 180 Climbing Boston Center
06:11PM 41.6447 -70.8094 280° West 378 435 10,000  Climbing Boston Center
06:12PM 41.7047 -71.2142 275° West  Level FlightAware Approximate
06:12PM 41.6633 -70.9533 280° West 394 453 10,000  Level Boston Center
06:13PM 41.7141 -71.3723 275° West  Level FlightAware Approximate
06:14PM 41.7666 -71.5091 306° West  Level FlightAware Approximate
06:14PM 41.6931 -71.1725 280° West 410 472 10,000  Level Boston Center
06:15PM 41.7114 -71.3306 279° West 410 472 10,000 720 Level Boston Center
06:16PM 41.7353 -71.4497 285° West 392 451 11,500 1,680 Climbing Boston Center
06:17PM 41.7844 -71.5797 297° West 360 414 13,400 1,740 Climbing Boston Center
06:18PM 41.8247 -71.6936 295° West 348 400 15,000 1,860 Climbing Boston Center
06:19PM 41.8692 -71.8100 297° West 341 392 17,200 2,100 Climbing Boston Center
06:20PM 41.9136 -71.9294 297° West 347 399 19,300 1,980 Climbing Boston Center
06:21PM 41.9578 -72.0464 297° West 347 399 21,200 1,680 Climbing Boston Center
06:22PM 42.0042 -72.1664 298° West 354 407 22,700 1,380 Climbing Boston Center
06:23PM 42.0503 -72.2947 296° West 365 420 24,000 1,260 Climbing Boston Center
06:24PM 42.1003 -72.4289 297° West 377 434 25,300 1,500 Climbing Boston Center
06:25PM 42.1503 -72.5633 297° West 391 450 27,000 1,800 Climbing Boston Center
06:26PM 42.2000 -72.6978 297° West 401 461 28,900 1,920 Climbing Boston Center
06:27PM 42.2456 -72.8328 295° West 401 461 30,900 1,500 Climbing Boston Center
06:28PM 42.2844 -72.9761 290° West 401 461 32,000 540 Climbing Boston Center
06:29PM 42.2753 -73.1303 265° West 396 456 32,000  Level Boston Center
06:30PM 42.2617 -73.2872 263° West 412 474 32,000  Level Boston Center
06:31PM 42.2500 -73.4553 265° West 417 480 32,000  Level Boston Center
06:32PM 42.2339 -73.6122 262° West 427 491 32,000  Level Boston Center
06:33PM 42.2153 -73.7883 262° West 436 502 32,000  Level Boston Center
06:34PM 42.2008 -73.9422 263° West 436 502 32,000  Level Boston Center
06:35PM 42.1883 -74.0961 264° West 424 488 32,000  Level Boston Center
06:36PM 42.1733 -74.2469 262° West 424 488 32,000  Level Boston Center
06:37PM 42.1583 -74.4006 263° West 424 488 32,000  Level Boston Center
06:38PM 42.1411 -74.5511 261° West 424 488 32,000  Level Boston Center
06:40PM 42.1078 -74.8969 263° West 426 490 32,000  Level New York Center
06:41PM 42.0869 -75.0689 261° West 426 490 32,000  Level New York Center
06:42PM 42.0731 -75.2217 263° West 426 490 32,000  Level New York Center
06:43PM 42.0425 -75.3675 254° West 426 490 32,000  Level New York Center
06:44PM 41.9875 -75.5003 241° Southwest 409 471 32,000  Level New York Center
06:45PM 41.9436 -75.6058 241° Southwest 409 471 32,000  Level New York Center
06:46PM 41.8786 -75.7656 241° Southwest 409 471 32,000  Level New York Center
06:47PM 41.8208 -75.9003 240° Southwest 409 471 32,000  Level New York Center
06:48PM 41.7672 -76.0325 242° Southwest 409 471 32,000  Level New York Center
06:49PM 41.7114 -76.1614 240° Southwest 409 471 32,000  Level New York Center
06:50PM 41.6575 -76.2931 241° Southwest 409 471 32,000  Level New York Center
06:51PM 41.6033 -76.4247 241° Southwest 404 465 32,000  Level New York Center
06:52PM 41.5517 -76.5478 241° Southwest 404 465 32,000  Level New York Center
06:53PM 41.4931 -76.6786 239° Southwest 404 465 32,000  Level New York Center
06:54PM 41.4389 -76.8067 241° Southwest 404 465 32,000  Level New York Center
06:55PM 41.3800 -76.9369 239° Southwest 404 465 32,000  Level New York Center
06:56PM 41.3256 -77.0644 240° Southwest 404 465 32,000  Level New York Center
06:57PM 41.2706 -77.1919 240° Southwest 404 465 32,000  Level New York Center
06:58PM 41.2136 -77.3189 239° Southwest 404 465 32,000  Level New York Center
06:59PM 41.1608 -77.4433 241° Southwest 404 465 32,000  Level New York Center
07:00PM 41.1036 -77.5700 239° Southwest 404 465 32,000  Level New York Center
07:01PM 41.0225 -77.7536 240° Southwest 398 458 32,000  Level Cleveland Center
07:02PM 40.9650 -77.8800 239° Southwest 393 452 32,000  Level Cleveland Center
07:03PM 40.9097 -78.0114 241° Southwest 398 458 32,000  Level Cleveland Center
07:05PM 40.8667 -78.1478 247° West 403 464 32,000  Level Cleveland Center
07:05PM 40.8239 -78.2892 248° West 408 470 32,000  Level Cleveland Center
07:06PM 40.7806 -78.4278 248° West 413 475 32,000  Level Cleveland Center
07:07PM 40.7375 -78.5717 248° West 418 481 32,000  Level Cleveland Center
07:08PM 40.6939 -78.7128 248° West 418 481 32,000  Level Cleveland Center
07:09PM 40.6503 -78.8536 248° West 418 481 32,000  Level Cleveland Center
07:10PM 40.6147 -78.9803 244° Southwest 418 481 32,000  Level Cleveland Center
07:11PM 40.6034 -78.9795 244° Southwest  Level FlightAware Approximate
07:11PM 40.5625 -79.1400 247° West 418 481 32,000  Level Cleveland Center
07:12PM 40.5183 -79.2803 248° West 418 481 32,000  Level Cleveland Center
07:13PM 40.4800 -79.4039 248° West 418 481 32,000  Level Cleveland Center
07:14PM 40.4356 -79.5439 247° West 418 481 32,000 -300 Level Cleveland Center
07:15PM 40.3908 -79.6836 247° West 418 481 31,400 -840 Descending Cleveland Center
07:16PM 40.3461 -79.8203 247° West 418 481 30,400 -1,080 Descending Cleveland Center
07:17PM 40.3011 -79.9597 247° West 418 481 29,300 -1,080 Descending Cleveland Center
07:18PM 40.2497 -80.1125 246° West 417 480 28,300 -660 Descending Cleveland Center
07:19PM 40.2022 -80.2514 246° West 417 480 28,000 -720 Descending Cleveland Center
07:20PM 40.1650 -80.3794 249° West 423 487 26,900 -1,080 Descending Cleveland Center
07:21PM 40.1172 -80.5233 247° West 423 487 25,900 -1,020 Descending Cleveland Center
07:22PM 40.0692 -80.6644 246° West 428 493 24,900 -1,020 Descending Cleveland Center
07:23PM 40.0231 -80.8081 247° West 428 493 23,900 -1,200 Descending Cleveland Center
07:24PM 39.9936 -80.9517 255° West 428 493 22,600 -960 Descending Cleveland Center
07:25PM 39.9639 -81.1003 255° West 423 487 22,000 -300 Descending Cleveland Center
07:27PM 39.9239 -81.2950 255° West 404 465 22,000 -240 Level Indianapolis Center
07:28PM 39.8972 -81.4347 256° West 401 461 21,500 -1,500 Descending Indianapolis Center
07:29PM 39.8681 -81.5775 255° West 404 465 18,900 -2,520 Descending Indianapolis Center
07:30PM 39.8367 -81.7356 256° West 387 445 16,400 -2,280 Descending Indianapolis Center
07:31PM 39.8089 -81.8775 256° West 399 459 14,200 -2,100 Descending Indianapolis Center
07:32PM 39.7750 -82.0358 254° West 363 418 11,700 -1,860 Descending Indianapolis Center
07:33PM 39.7586 -82.1203 256° West 304 350 10,400 -960 Descending Indianapolis Center
07:34PM 39.7578 -82.2172 269° West 267 307 10,000 -240 Descending Indianapolis Center
07:35PM 39.7786 -82.3144 286° West 275 316 10,000  Level Indianapolis Center
07:36PM 39.8036 -82.4453 284° West 281 323 10,000  Level Indianapolis Center
07:37PM 39.8194 -82.5267 284° West 276 318 10,000 -660 Level Indianapolis Center
07:38PM 39.8389 -82.6228 285° West 273 314 8,800 -1,620 Descending Indianapolis Center
07:39PM 39.8578 -82.7167 285° West 267 307 6,700 -1,380 Descending Indianapolis Center
07:40PM 39.8747 -82.8119 283° West 268 308 6,000 -360 Descending Indianapolis Center
07:41PM 39.8917 -82.9053 283° West 263 303 6,000 -660 Level Indianapolis Center
07:42PM 39.9069 -82.9986 282° West 261 300 4,700 -1,080 Descending Indianapolis Center
07:44PM 39.9592 -83.0533 321° Northwest 202 232 3,700 -900 Descending Indianapolis Center
07:44PM 39.9981 -83.0450 North 210 242 2,900 -1,080 Descending Indianapolis Center
07:45PM 40.0061 -82.9672 82° East 189 217 1,700 -900 Descending Indianapolis Center
07:46PM 40.0042 -82.9247 93° East 164 189 1,100 -600 Descending Indianapolis Center